sensor_id;sensor_type;location;lat;lon;timestamp;P1;durP1;ratioP1;P2;durP2;ratioP2
37777;SDS011;23615;51.506;7.678;2022-10-18T00:01:37;1.47;;;0.70;;
37777;SDS011;23615;51.506;7.678;2022-10-18T00:04:02;0.60;;;0.50;;
37777;SDS011;23615;51.506;7.678;2022-10-18T00:06:28;0.60;;;0.60;;
37777;SDS011;23615;51.506;7.678;2022-10-18T00:08:53;0.90;;;0.70;;
37777;SDS011;23615;51.506;7.678;2022-10-18T00:11:18;1.00;;;0.90;;
37777;SDS011;23615;51.506;7.678;2022-10-18T00:13:44;0.80;;;0.80;;
37777;SDS011;23615;51.506;7.678;2022-10-18T00:16:10;0.83;;;0.80;;
37777;SDS011;23615;51.506;7.678;2022-10-18T00:18:37;1.13;;;0.73;;
37777;SDS011;23615;51.506;7.678;2022-10-18T00:21:06;0.73;;;0.70;;
37777;SDS011;23615;51.506;7.678;2022-10-18T00:23:33;1.25;;;0.90;;
37777;SDS011;23615;51.506;7.678;2022-10-18T00:26:09;1.10;;;0.90;;
37777;SDS011;23615;51.506;7.678;2022-10-18T00:28:37;1.33;;;1.23;;
37777;SDS011;23615;51.506;7.678;2022-10-18T00:33:42;1.92;;;1.40;;
37777;SDS011;23615;51.506;7.678;2022-10-18T00:36:09;1.53;;;1.43;;
37777;SDS011;23615;51.506;7.678;2022-10-18T00:38:35;1.75;;;1.63;;
37777;SDS011;23615;51.506;7.678;2022-10-18T00:41:02;2.20;;;2.00;;
37777;SDS011;23615;51.506;7.678;2022-10-18T00:43:29;2.10;;;1.77;;
37777;SDS011;23615;51.506;7.678;2022-10-18T00:45:54;2.03;;;1.77;;
37777;SDS011;23615;51.506;7.678;2022-10-18T00:48:20;1.87;;;1.57;;
37777;SDS011;23615;51.506;7.678;2022-10-18T00:50:45;2.43;;;2.10;;
37777;SDS011;23615;51.506;7.678;2022-10-18T00:53:15;1.83;;;1.55;;
37777;SDS011;23615;51.506;7.678;2022-10-18T00:55:41;2.53;;;2.10;;
37777;SDS011;23615;51.506;7.678;2022-10-18T00:58:07;2.20;;;2.07;;
37777;SDS011;23615;51.506;7.678;2022-10-18T01:00:34;2.07;;;1.87;;
37777;SDS011;23615;51.506;7.678;2022-10-18T01:03:03;1.70;;;1.50;;
37777;SDS011;23615;51.506;7.678;2022-10-18T01:05:29;2.40;;;2.10;;
37777;SDS011;23615;51.506;7.678;2022-10-18T01:10:53;2.05;;;1.95;;
37777;SDS011;23615;51.506;7.678;2022-10-18T01:16:29;2.17;;;1.92;;
37777;SDS011;23615;51.506;7.678;2022-10-18T01:19:02;1.80;;;1.70;;
37777;SDS011;23615;51.506;7.678;2022-10-18T01:21:50;2.20;;;1.80;;
37777;SDS011;23615;51.506;7.678;2022-10-18T01:24:27;1.65;;;1.55;;
37777;SDS011;23615;51.506;7.678;2022-10-18T01:30:21;1.63;;;1.53;;
37777;SDS011;23615;51.506;7.678;2022-10-18T01:32:53;1.80;;;1.63;;
37777;SDS011;23615;51.506;7.678;2022-10-18T01:35:30;1.90;;;1.80;;
37777;SDS011;23615;51.506;7.678;2022-10-18T01:38:02;2.45;;;1.50;;
37777;SDS011;23615;51.506;7.678;2022-10-18T01:40:31;1.70;;;1.60;;
37777;SDS011;23615;51.506;7.678;2022-10-18T01:42:59;2.25;;;2.05;;
37777;SDS011;23615;51.506;7.678;2022-10-18T01:45:25;2.33;;;1.80;;
37777;SDS011;23615;51.506;7.678;2022-10-18T01:47:52;2.40;;;1.63;;
37777;SDS011;23615;51.506;7.678;2022-10-18T01:50:28;2.40;;;1.73;;
37777;SDS011;23615;51.506;7.678;2022-10-18T01:52:55;1.80;;;1.70;;
37777;SDS011;23615;51.506;7.678;2022-10-18T01:55:23;1.75;;;1.50;;
37777;SDS011;23615;51.506;7.678;2022-10-18T01:58:06;1.73;;;1.63;;
37777;SDS011;23615;51.506;7.678;2022-10-18T02:00:43;1.57;;;1.40;;
37777;SDS011;23615;51.506;7.678;2022-10-18T02:03:24;2.60;;;1.67;;
37777;SDS011;23615;51.506;7.678;2022-10-18T02:11:06;1.35;;;1.25;;
37777;SDS011;23615;51.506;7.678;2022-10-18T02:13:50;1.02;;;1.00;;
37777;SDS011;23615;51.506;7.678;2022-10-18T02:16:24;1.98;;;1.50;;
37777;SDS011;23615;51.506;7.678;2022-10-18T02:19:41;1.40;;;1.30;;
37777;SDS011;23615;51.506;7.678;2022-10-18T02:21:47;1.70;;;1.52;;
37777;SDS011;23615;51.506;7.678;2022-10-18T02:24:13;2.10;;;1.20;;
37777;SDS011;23615;51.506;7.678;2022-10-18T02:26:40;1.77;;;0.95;;
37777;SDS011;23615;51.506;7.678;2022-10-18T02:29:06;1.40;;;1.02;;
37777;SDS011;23615;51.506;7.678;2022-10-18T02:31:36;1.80;;;1.50;;
37777;SDS011;23615;51.506;7.678;2022-10-18T02:34:19;1.35;;;0.90;;
37777;SDS011;23615;51.506;7.678;2022-10-18T02:36:52;1.73;;;1.48;;
37777;SDS011;23615;51.506;7.678;2022-10-18T02:39:23;1.80;;;1.27;;
37777;SDS011;23615;51.506;7.678;2022-10-18T02:41:52;3.10;;;1.60;;
37777;SDS011;23615;51.506;7.678;2022-10-18T02:44:18;2.53;;;1.80;;
37777;SDS011;23615;51.506;7.678;2022-10-18T02:46:43;1.80;;;1.42;;
37777;SDS011;23615;51.506;7.678;2022-10-18T02:49:10;1.38;;;1.00;;
37777;SDS011;23615;51.506;7.678;2022-10-18T02:51:35;1.33;;;1.23;;
37777;SDS011;23615;51.506;7.678;2022-10-18T02:54:00;2.00;;;1.40;;
37777;SDS011;23615;51.506;7.678;2022-10-18T02:56:26;1.40;;;1.20;;
37777;SDS011;23615;51.506;7.678;2022-10-18T02:58:51;2.67;;;1.23;;
37777;SDS011;23615;51.506;7.678;2022-10-18T03:01:16;2.80;;;1.50;;
37777;SDS011;23615;51.506;7.678;2022-10-18T03:03:41;1.20;;;1.10;;
37777;SDS011;23615;51.506;7.678;2022-10-18T03:06:07;2.20;;;1.30;;
37777;SDS011;23615;51.506;7.678;2022-10-18T03:08:32;2.40;;;1.50;;
37777;SDS011;23615;51.506;7.678;2022-10-18T03:10:57;1.40;;;1.30;;
37777;SDS011;23615;51.506;7.678;2022-10-18T03:13:22;1.83;;;1.30;;
37777;SDS011;23615;51.506;7.678;2022-10-18T03:15:48;1.97;;;1.50;;
37777;SDS011;23615;51.506;7.678;2022-10-18T03:18:13;1.70;;;1.60;;
37777;SDS011;23615;51.506;7.678;2022-10-18T03:20:39;2.08;;;1.52;;
37777;SDS011;23615;51.506;7.678;2022-10-18T03:23:05;1.20;;;1.10;;
37777;SDS011;23615;51.506;7.678;2022-10-18T03:25:31;2.10;;;1.85;;
37777;SDS011;23615;51.506;7.678;2022-10-18T03:27:56;1.55;;;1.40;;
37777;SDS011;23615;51.506;7.678;2022-10-18T03:30:22;1.70;;;1.50;;
37777;SDS011;23615;51.506;7.678;2022-10-18T03:32:47;1.47;;;1.10;;
37777;SDS011;23615;51.506;7.678;2022-10-18T03:35:12;2.10;;;1.50;;
37777;SDS011;23615;51.506;7.678;2022-10-18T03:37:38;2.13;;;1.50;;
37777;SDS011;23615;51.506;7.678;2022-10-18T03:40:03;1.83;;;1.70;;
37777;SDS011;23615;51.506;7.678;2022-10-18T03:42:29;2.90;;;1.65;;
37777;SDS011;23615;51.506;7.678;2022-10-18T03:44:54;1.60;;;1.50;;
37777;SDS011;23615;51.506;7.678;2022-10-18T03:47:19;2.00;;;1.30;;
37777;SDS011;23615;51.506;7.678;2022-10-18T03:49:45;1.70;;;1.60;;
37777;SDS011;23615;51.506;7.678;2022-10-18T03:52:10;1.73;;;1.27;;
37777;SDS011;23615;51.506;7.678;2022-10-18T03:54:35;1.20;;;1.10;;
37777;SDS011;23615;51.506;7.678;2022-10-18T03:57:01;1.30;;;1.20;;
37777;SDS011;23615;51.506;7.678;2022-10-18T03:59:26;1.40;;;1.30;;
37777;SDS011;23615;51.506;7.678;2022-10-18T04:01:51;1.20;;;1.10;;
37777;SDS011;23615;51.506;7.678;2022-10-18T04:04:17;1.57;;;1.20;;
37777;SDS011;23615;51.506;7.678;2022-10-18T04:06:42;1.40;;;1.30;;
37777;SDS011;23615;51.506;7.678;2022-10-18T04:09:07;1.47;;;1.37;;
37777;SDS011;23615;51.506;7.678;2022-10-18T04:11:34;3.85;;;1.77;;
37777;SDS011;23615;51.506;7.678;2022-10-18T04:14:00;1.85;;;1.33;;
37777;SDS011;23615;51.506;7.678;2022-10-18T04:16:25;1.70;;;0.93;;
37777;SDS011;23615;51.506;7.678;2022-10-18T04:18:50;1.20;;;1.00;;
37777;SDS011;23615;51.506;7.678;2022-10-18T04:21:16;1.20;;;1.10;;
37777;SDS011;23615;51.506;7.678;2022-10-18T04:23:41;1.40;;;1.30;;
37777;SDS011;23615;51.506;7.678;2022-10-18T04:26:07;1.10;;;0.87;;
37777;SDS011;23615;51.506;7.678;2022-10-18T04:28:33;1.63;;;1.20;;
37777;SDS011;23615;51.506;7.678;2022-10-18T04:30:59;2.05;;;1.60;;
37777;SDS011;23615;51.506;7.678;2022-10-18T04:33:24;1.90;;;1.70;;
37777;SDS011;23615;51.506;7.678;2022-10-18T04:35:50;1.33;;;1.23;;
37777;SDS011;23615;51.506;7.678;2022-10-18T04:38:16;1.75;;;1.58;;
37777;SDS011;23615;51.506;7.678;2022-10-18T04:40:42;2.50;;;2.30;;
37777;SDS011;23615;51.506;7.678;2022-10-18T04:43:07;2.20;;;1.70;;
37777;SDS011;23615;51.506;7.678;2022-10-18T04:45:32;2.57;;;2.03;;
37777;SDS011;23615;51.506;7.678;2022-10-18T04:47:58;2.67;;;1.63;;
37777;SDS011;23615;51.506;7.678;2022-10-18T04:50:23;1.97;;;1.30;;
37777;SDS011;23615;51.506;7.678;2022-10-18T04:52:48;1.90;;;1.70;;
37777;SDS011;23615;51.506;7.678;2022-10-18T04:55:14;1.70;;;1.10;;
37777;SDS011;23615;51.506;7.678;2022-10-18T04:57:39;1.50;;;1.40;;
37777;SDS011;23615;51.506;7.678;2022-10-18T05:00:04;1.90;;;1.70;;
37777;SDS011;23615;51.506;7.678;2022-10-18T05:02:30;2.35;;;2.15;;
37777;SDS011;23615;51.506;7.678;2022-10-18T05:04:55;3.00;;;2.23;;
37777;SDS011;23615;51.506;7.678;2022-10-18T05:07:21;2.77;;;2.57;;
37777;SDS011;23615;51.506;7.678;2022-10-18T05:09:46;2.13;;;1.93;;
37777;SDS011;23615;51.506;7.678;2022-10-18T05:12:11;2.17;;;2.00;;
37777;SDS011;23615;51.506;7.678;2022-10-18T05:14:36;1.97;;;1.80;;
37777;SDS011;23615;51.506;7.678;2022-10-18T05:17:02;3.03;;;2.00;;
37777;SDS011;23615;51.506;7.678;2022-10-18T05:19:27;2.40;;;2.03;;
37777;SDS011;23615;51.506;7.678;2022-10-18T05:21:52;1.73;;;1.60;;
37777;SDS011;23615;51.506;7.678;2022-10-18T05:24:17;4.93;;;3.20;;
37777;SDS011;23615;51.506;7.678;2022-10-18T05:26:43;3.57;;;3.27;;
37777;SDS011;23615;51.506;7.678;2022-10-18T05:29:08;3.53;;;2.63;;
37777;SDS011;23615;51.506;7.678;2022-10-18T05:31:33;4.38;;;3.05;;
37777;SDS011;23615;51.506;7.678;2022-10-18T05:33:59;4.73;;;3.40;;
37777;SDS011;23615;51.506;7.678;2022-10-18T05:36:25;4.85;;;3.13;;
37777;SDS011;23615;51.506;7.678;2022-10-18T05:38:50;3.33;;;2.40;;
37777;SDS011;23615;51.506;7.678;2022-10-18T05:41:17;3.67;;;2.97;;
37777;SDS011;23615;51.506;7.678;2022-10-18T05:43:43;4.17;;;3.20;;
37777;SDS011;23615;51.506;7.678;2022-10-18T05:46:08;5.00;;;3.73;;
37777;SDS011;23615;51.506;7.678;2022-10-18T05:48:34;3.40;;;3.00;;
37777;SDS011;23615;51.506;7.678;2022-10-18T05:50:59;3.97;;;3.57;;
37777;SDS011;23615;51.506;7.678;2022-10-18T05:53:25;3.63;;;3.13;;
37777;SDS011;23615;51.506;7.678;2022-10-18T05:55:51;3.88;;;3.45;;
37777;SDS011;23615;51.506;7.678;2022-10-18T05:58:16;3.63;;;3.33;;
37777;SDS011;23615;51.506;7.678;2022-10-18T06:00:42;3.27;;;2.97;;
37777;SDS011;23615;51.506;7.678;2022-10-18T06:03:07;3.90;;;3.10;;
37777;SDS011;23615;51.506;7.678;2022-10-18T06:05:32;3.60;;;3.27;;
37777;SDS011;23615;51.506;7.678;2022-10-18T06:07:57;4.17;;;3.47;;
37777;SDS011;23615;51.506;7.678;2022-10-18T06:10:23;3.50;;;3.20;;
37777;SDS011;23615;51.506;7.678;2022-10-18T06:12:48;3.95;;;3.25;;
37777;SDS011;23615;51.506;7.678;2022-10-18T06:15:14;3.50;;;3.20;;
37777;SDS011;23615;51.506;7.678;2022-10-18T06:17:39;3.97;;;3.23;;
37777;SDS011;23615;51.506;7.678;2022-10-18T06:20:04;3.33;;;2.83;;
37777;SDS011;23615;51.506;7.678;2022-10-18T06:22:31;3.10;;;2.33;;
37777;SDS011;23615;51.506;7.678;2022-10-18T06:24:56;3.13;;;2.73;;
37777;SDS011;23615;51.506;7.678;2022-10-18T06:27:22;3.87;;;3.40;;
37777;SDS011;23615;51.506;7.678;2022-10-18T06:29:47;4.05;;;3.35;;
37777;SDS011;23615;51.506;7.678;2022-10-18T06:32:12;3.57;;;3.17;;
37777;SDS011;23615;51.506;7.678;2022-10-18T06:34:38;3.97;;;3.20;;
37777;SDS011;23615;51.506;7.678;2022-10-18T06:37:03;3.43;;;3.07;;
37777;SDS011;23615;51.506;7.678;2022-10-18T06:39:28;5.50;;;4.60;;
37777;SDS011;23615;51.506;7.678;2022-10-18T06:41:53;5.40;;;4.47;;
37777;SDS011;23615;51.506;7.678;2022-10-18T06:44:19;5.33;;;3.90;;
37777;SDS011;23615;51.506;7.678;2022-10-18T06:46:45;4.83;;;4.30;;
37777;SDS011;23615;51.506;7.678;2022-10-18T06:49:12;5.65;;;4.55;;
37777;SDS011;23615;51.506;7.678;2022-10-18T06:51:38;8.23;;;5.22;;
37777;SDS011;23615;51.506;7.678;2022-10-18T06:54:04;5.82;;;3.85;;
37777;SDS011;23615;51.506;7.678;2022-10-18T06:56:30;6.07;;;4.40;;
37777;SDS011;23615;51.506;7.678;2022-10-18T06:58:55;6.75;;;4.30;;
37777;SDS011;23615;51.506;7.678;2022-10-18T07:01:20;7.83;;;5.20;;
37777;SDS011;23615;51.506;7.678;2022-10-18T07:03:47;8.47;;;5.30;;
37777;SDS011;23615;51.506;7.678;2022-10-18T07:06:14;14.60;;;7.40;;
37777;SDS011;23615;51.506;7.678;2022-10-18T07:08:41;14.32;;;7.90;;
37777;SDS011;23615;51.506;7.678;2022-10-18T07:11:07;16.38;;;8.30;;
37777;SDS011;23615;51.506;7.678;2022-10-18T07:13:37;15.85;;;9.15;;
37777;SDS011;23615;51.506;7.678;2022-10-18T07:18:29;13.60;;;7.55;;
37777;SDS011;23615;51.506;7.678;2022-10-18T07:20:55;18.55;;;9.70;;
37777;SDS011;23615;51.506;7.678;2022-10-18T07:23:21;11.00;;;7.22;;
37777;SDS011;23615;51.506;7.678;2022-10-18T07:25:47;15.20;;;8.70;;
37777;SDS011;23615;51.506;7.678;2022-10-18T07:28:13;19.90;;;10.45;;
37777;SDS011;23615;51.506;7.678;2022-10-18T07:30:38;19.10;;;12.30;;
37777;SDS011;23615;51.506;7.678;2022-10-18T07:33:03;20.50;;;11.27;;
37777;SDS011;23615;51.506;7.678;2022-10-18T07:35:29;21.97;;;12.00;;
37777;SDS011;23615;51.506;7.678;2022-10-18T07:37:54;18.67;;;11.13;;
37777;SDS011;23615;51.506;7.678;2022-10-18T07:40:19;12.03;;;7.80;;
37777;SDS011;23615;51.506;7.678;2022-10-18T07:42:45;16.47;;;9.70;;
37777;SDS011;23615;51.506;7.678;2022-10-18T07:45:10;15.15;;;9.02;;
37777;SDS011;23615;51.506;7.678;2022-10-18T07:47:36;15.75;;;10.30;;
37777;SDS011;23615;51.506;7.678;2022-10-18T07:50:01;14.17;;;8.57;;
37777;SDS011;23615;51.506;7.678;2022-10-18T07:52:27;19.92;;;12.20;;
37777;SDS011;23615;51.506;7.678;2022-10-18T07:54:52;15.48;;;10.30;;
37777;SDS011;23615;51.506;7.678;2022-10-18T07:57:17;14.73;;;9.77;;
37777;SDS011;23615;51.506;7.678;2022-10-18T07:59:43;15.77;;;10.17;;
37777;SDS011;23615;51.506;7.678;2022-10-18T08:02:10;14.55;;;9.57;;
37777;SDS011;23615;51.506;7.678;2022-10-18T08:04:35;13.90;;;9.23;;
37777;SDS011;23615;51.506;7.678;2022-10-18T08:07:01;18.40;;;11.47;;
37777;SDS011;23615;51.506;7.678;2022-10-18T08:09:26;16.07;;;10.07;;
37777;SDS011;23615;51.506;7.678;2022-10-18T08:11:51;16.73;;;10.00;;
37777;SDS011;23615;51.506;7.678;2022-10-18T08:14:16;11.73;;;8.97;;
37777;SDS011;23615;51.506;7.678;2022-10-18T08:16:42;14.73;;;9.37;;
37777;SDS011;23615;51.506;7.678;2022-10-18T08:19:07;16.73;;;11.25;;
37777;SDS011;23615;51.506;7.678;2022-10-18T08:21:32;17.53;;;12.17;;
37777;SDS011;23615;51.506;7.678;2022-10-18T08:23:57;18.23;;;11.87;;
37777;SDS011;23615;51.506;7.678;2022-10-18T08:26:23;19.50;;;11.30;;
37777;SDS011;23615;51.506;7.678;2022-10-18T08:28:48;21.83;;;13.50;;
37777;SDS011;23615;51.506;7.678;2022-10-18T08:31:15;20.42;;;12.82;;
37777;SDS011;23615;51.506;7.678;2022-10-18T08:33:42;20.77;;;13.55;;
37777;SDS011;23615;51.506;7.678;2022-10-18T08:36:09;19.93;;;13.03;;
37777;SDS011;23615;51.506;7.678;2022-10-18T08:38:38;18.00;;;11.73;;
37777;SDS011;23615;51.506;7.678;2022-10-18T08:43:40;28.65;;;16.83;;
37777;SDS011;23615;51.506;7.678;2022-10-18T08:46:20;22.45;;;13.55;;
37777;SDS011;23615;51.506;7.678;2022-10-18T08:48:48;22.15;;;14.43;;
37777;SDS011;23615;51.506;7.678;2022-10-18T08:51:22;27.95;;;17.70;;
37777;SDS011;23615;51.506;7.678;2022-10-18T08:53:58;28.98;;;17.98;;
37777;SDS011;23615;51.506;7.678;2022-10-18T08:56:31;25.10;;;16.25;;
37777;SDS011;23615;51.506;7.678;2022-10-18T08:58:57;31.30;;;19.15;;
37777;SDS011;23615;51.506;7.678;2022-10-18T09:13:01;34.42;;;22.35;;
37777;SDS011;23615;51.506;7.678;2022-10-18T09:21:01;59.28;;;31.60;;
37777;SDS011;23615;51.506;7.678;2022-10-18T09:23:55;71.60;;;33.10;;
37777;SDS011;23615;51.506;7.678;2022-10-18T09:26:24;67.25;;;34.42;;
37777;SDS011;23615;51.506;7.678;2022-10-18T09:29:05;53.07;;;28.37;;
37777;SDS011;23615;51.506;7.678;2022-10-18T09:31:44;53.40;;;29.30;;
37777;SDS011;23615;51.506;7.678;2022-10-18T09:34:29;44.95;;;27.45;;
37777;SDS011;23615;51.506;7.678;2022-10-18T09:37:01;44.67;;;26.77;;
37777;SDS011;23615;51.506;7.678;2022-10-18T09:39:29;47.65;;;29.80;;
37777;SDS011;23615;51.506;7.678;2022-10-18T09:44:36;54.78;;;33.25;;
37777;SDS011;23615;51.506;7.678;2022-10-18T09:47:12;52.00;;;31.02;;
37777;SDS011;23615;51.506;7.678;2022-10-18T09:49:46;60.90;;;35.35;;
37777;SDS011;23615;51.506;7.678;2022-10-18T09:52:17;58.15;;;33.28;;
37777;SDS011;23615;51.506;7.678;2022-10-18T09:54:50;62.17;;;35.35;;
37777;SDS011;23615;51.506;7.678;2022-10-18T09:57:22;70.95;;;39.00;;
37777;SDS011;23615;51.506;7.678;2022-10-18T09:59:55;56.83;;;35.15;;
37777;SDS011;23615;51.506;7.678;2022-10-18T10:02:24;62.53;;;35.25;;
37777;SDS011;23615;51.506;7.678;2022-10-18T10:04:50;66.90;;;37.40;;
37777;SDS011;23615;51.506;7.678;2022-10-18T10:09:47;75.68;;;39.85;;
37777;SDS011;23615;51.506;7.678;2022-10-18T10:12:37;85.68;;;43.08;;
37777;SDS011;23615;51.506;7.678;2022-10-18T10:17:56;89.82;;;46.05;;
37777;SDS011;23615;51.506;7.678;2022-10-18T10:23:30;58.50;;;32.85;;
37777;SDS011;23615;51.506;7.678;2022-10-18T10:26:01;41.17;;;26.03;;
37777;SDS011;23615;51.506;7.678;2022-10-18T10:28:44;35.13;;;23.75;;
37777;SDS011;23615;51.506;7.678;2022-10-18T10:31:31;30.80;;;21.73;;
37777;SDS011;23615;51.506;7.678;2022-10-18T10:34:02;34.33;;;24.15;;
37777;SDS011;23615;51.506;7.678;2022-10-18T10:36:27;30.02;;;20.98;;
37777;SDS011;23615;51.506;7.678;2022-10-18T10:39:09;31.38;;;23.52;;
37777;SDS011;23615;51.506;7.678;2022-10-18T10:41:36;34.22;;;25.10;;
37777;SDS011;23615;51.506;7.678;2022-10-18T10:44:04;29.92;;;22.83;;
37777;SDS011;23615;51.506;7.678;2022-10-18T10:46:39;34.25;;;24.85;;
37777;SDS011;23615;51.506;7.678;2022-10-18T10:49:04;35.13;;;25.40;;
37777;SDS011;23615;51.506;7.678;2022-10-18T10:51:31;35.83;;;24.77;;
37777;SDS011;23615;51.506;7.678;2022-10-18T10:54:17;33.38;;;24.45;;
37777;SDS011;23615;51.506;7.678;2022-10-18T10:56:56;33.90;;;23.97;;
37777;SDS011;23615;51.506;7.678;2022-10-18T10:59:28;33.60;;;22.88;;
37777;SDS011;23615;51.506;7.678;2022-10-18T11:02:18;34.47;;;23.75;;
37777;SDS011;23615;51.506;7.678;2022-10-18T11:04:49;34.45;;;26.35;;
37777;SDS011;23615;51.506;7.678;2022-10-18T11:12:46;33.83;;;25.83;;
37777;SDS011;23615;51.506;7.678;2022-10-18T11:15:21;34.53;;;26.38;;
37777;SDS011;23615;51.506;7.678;2022-10-18T11:20:37;37.42;;;27.08;;
37777;SDS011;23615;51.506;7.678;2022-10-18T11:23:09;31.98;;;24.67;;
37777;SDS011;23615;51.506;7.678;2022-10-18T11:40:31;28.02;;;21.50;;
37777;SDS011;23615;51.506;7.678;2022-10-18T11:48:52;27.40;;;19.92;;
37777;SDS011;23615;51.506;7.678;2022-10-18T11:54:17;25.88;;;20.27;;
37777;SDS011;23615;51.506;7.678;2022-10-18T11:56:52;30.30;;;21.27;;
37777;SDS011;23615;51.506;7.678;2022-10-18T11:59:48;28.73;;;21.10;;
37777;SDS011;23615;51.506;7.678;2022-10-18T12:05:08;25.42;;;19.77;;
37777;SDS011;23615;51.506;7.678;2022-10-18T12:07:37;22.80;;;17.95;;
37777;SDS011;23615;51.506;7.678;2022-10-18T12:10:08;26.50;;;20.83;;
37777;SDS011;23615;51.506;7.678;2022-10-18T12:12:46;28.33;;;20.63;;
37777;SDS011;23615;51.506;7.678;2022-10-18T12:17:55;25.42;;;19.88;;
37777;SDS011;23615;51.506;7.678;2022-10-18T12:20:26;26.35;;;20.50;;
37777;SDS011;23615;51.506;7.678;2022-10-18T12:22:59;24.48;;;19.75;;
37777;SDS011;23615;51.506;7.678;2022-10-18T12:25:28;21.17;;;16.48;;
37777;SDS011;23615;51.506;7.678;2022-10-18T12:27:58;23.27;;;18.00;;
37777;SDS011;23615;51.506;7.678;2022-10-18T12:33:39;21.90;;;17.98;;
37777;SDS011;23615;51.506;7.678;2022-10-18T12:38:43;24.27;;;18.38;;
37777;SDS011;23615;51.506;7.678;2022-10-18T12:41:15;26.13;;;19.58;;
37777;SDS011;23615;51.506;7.678;2022-10-18T12:43:49;24.08;;;18.98;;
37777;SDS011;23615;51.506;7.678;2022-10-18T12:46:16;24.65;;;18.65;;
37777;SDS011;23615;51.506;7.678;2022-10-18T12:48:42;18.63;;;15.30;;
37777;SDS011;23615;51.506;7.678;2022-10-18T12:51:17;19.30;;;15.75;;
37777;SDS011;23615;51.506;7.678;2022-10-18T12:53:48;22.27;;;16.17;;
37777;SDS011;23615;51.506;7.678;2022-10-18T12:56:33;24.42;;;17.33;;
37777;SDS011;23615;51.506;7.678;2022-10-18T13:09:33;19.48;;;14.70;;
37777;SDS011;23615;51.506;7.678;2022-10-18T13:19:59;13.93;;;11.07;;
37777;SDS011;23615;51.506;7.678;2022-10-18T13:25:44;14.82;;;12.48;;
37777;SDS011;23615;51.506;7.678;2022-10-18T13:28:21;11.25;;;10.10;;
37777;SDS011;23615;51.506;7.678;2022-10-18T13:34:36;11.63;;;9.30;;
37777;SDS011;23615;51.506;7.678;2022-10-18T13:39:23;10.30;;;7.93;;
37777;SDS011;23615;51.506;7.678;2022-10-18T13:57:58;8.63;;;6.38;;
37777;SDS011;23615;51.506;7.678;2022-10-18T14:00:50;7.32;;;5.03;;
37777;SDS011;23615;51.506;7.678;2022-10-18T14:03:47;8.85;;;5.50;;
37777;SDS011;23615;51.506;7.678;2022-10-18T14:06:19;10.55;;;4.72;;
37777;SDS011;23615;51.506;7.678;2022-10-18T14:08:58;5.32;;;3.67;;
37777;SDS011;23615;51.506;7.678;2022-10-18T14:12:29;8.20;;;4.05;;
37777;SDS011;23615;51.506;7.678;2022-10-18T14:14:42;4.32;;;2.83;;
37777;SDS011;23615;51.506;7.678;2022-10-18T14:19:35;6.30;;;3.23;;
37777;SDS011;23615;51.506;7.678;2022-10-18T14:22:13;4.32;;;2.60;;
37777;SDS011;23615;51.506;7.678;2022-10-18T14:24:43;5.90;;;2.60;;
37777;SDS011;23615;51.506;7.678;2022-10-18T14:27:30;4.75;;;2.47;;
37777;SDS011;23615;51.506;7.678;2022-10-18T14:30:08;5.87;;;2.47;;
37777;SDS011;23615;51.506;7.678;2022-10-18T14:32:34;4.03;;;2.03;;
37777;SDS011;23615;51.506;7.678;2022-10-18T14:35:00;6.80;;;2.90;;
37777;SDS011;23615;51.506;7.678;2022-10-18T14:37:44;5.87;;;2.40;;
37777;SDS011;23615;51.506;7.678;2022-10-18T14:40:31;5.50;;;2.17;;
37777;SDS011;23615;51.506;7.678;2022-10-18T14:43:10;6.15;;;2.65;;
37777;SDS011;23615;51.506;7.678;2022-10-18T14:45:38;5.22;;;2.67;;
37777;SDS011;23615;51.506;7.678;2022-10-18T14:48:14;7.25;;;2.78;;
37777;SDS011;23615;51.506;7.678;2022-10-18T14:50:42;4.07;;;2.47;;
37777;SDS011;23615;51.506;7.678;2022-10-18T14:53:12;6.63;;;1.75;;
37777;SDS011;23615;51.506;7.678;2022-10-18T14:55:40;4.63;;;1.58;;
37777;SDS011;23615;51.506;7.678;2022-10-18T14:58:15;4.67;;;1.47;;
37777;SDS011;23615;51.506;7.678;2022-10-18T15:00:41;4.72;;;0.93;;
37777;SDS011;23615;51.506;7.678;2022-10-18T15:03:08;5.18;;;1.33;;
37777;SDS011;23615;51.506;7.678;2022-10-18T15:05:38;5.40;;;1.42;;
37777;SDS011;23615;51.506;7.678;2022-10-18T15:08:16;4.43;;;1.40;;
37777;SDS011;23615;51.506;7.678;2022-10-18T15:10:42;6.40;;;1.52;;
37777;SDS011;23615;51.506;7.678;2022-10-18T15:13:08;7.45;;;1.30;;
37777;SDS011;23615;51.506;7.678;2022-10-18T15:15:36;4.70;;;1.00;;
37777;SDS011;23615;51.506;7.678;2022-10-18T15:18:02;3.93;;;0.90;;
37777;SDS011;23615;51.506;7.678;2022-10-18T15:20:30;5.10;;;0.95;;
37777;SDS011;23615;51.506;7.678;2022-10-18T15:25:51;5.97;;;1.02;;
37777;SDS011;23615;51.506;7.678;2022-10-18T15:30:59;5.50;;;0.80;;
37777;SDS011;23615;51.506;7.678;2022-10-18T15:33:26;3.13;;;0.80;;
37777;SDS011;23615;51.506;7.678;2022-10-18T15:36:06;2.95;;;0.55;;
37777;SDS011;23615;51.506;7.678;2022-10-18T15:38:34;3.70;;;0.70;;
37777;SDS011;23615;51.506;7.678;2022-10-18T15:41:01;3.75;;;0.55;;
37777;SDS011;23615;51.506;7.678;2022-10-18T15:45:53;3.93;;;0.63;;
37777;SDS011;23615;51.506;7.678;2022-10-18T15:48:22;1.55;;;0.50;;
37777;SDS011;23615;51.506;7.678;2022-10-18T15:50:54;2.03;;;0.47;;
37777;SDS011;23615;51.506;7.678;2022-10-18T15:56:02;4.13;;;0.67;;
37777;SDS011;23615;51.506;7.678;2022-10-18T16:01:14;3.05;;;0.35;;
37777;SDS011;23615;51.506;7.678;2022-10-18T16:03:41;1.80;;;0.60;;
37777;SDS011;23615;51.506;7.678;2022-10-18T16:06:08;1.58;;;0.20;;
37777;SDS011;23615;51.506;7.678;2022-10-18T16:08:36;1.35;;;0.20;;
37777;SDS011;23615;51.506;7.678;2022-10-18T16:11:05;2.38;;;0.40;;
37777;SDS011;23615;51.506;7.678;2022-10-18T16:13:31;2.38;;;0.40;;
37777;SDS011;23615;51.506;7.678;2022-10-18T16:15:57;2.28;;;0.40;;
37777;SDS011;23615;51.506;7.678;2022-10-18T16:18:24;3.55;;;0.45;;
37777;SDS011;23615;51.506;7.678;2022-10-18T16:20:50;1.05;;;0.32;;
37777;SDS011;23615;51.506;7.678;2022-10-18T16:23:17;0.67;;;0.23;;
37777;SDS011;23615;51.506;7.678;2022-10-18T16:25:44;2.20;;;0.40;;
37777;SDS011;23615;51.506;7.678;2022-10-18T16:28:13;1.87;;;0.30;;
37777;SDS011;23615;51.506;7.678;2022-10-18T16:30:41;0.88;;;0.30;;
37777;SDS011;23615;51.506;7.678;2022-10-18T16:33:09;2.80;;;0.40;;
37777;SDS011;23615;51.506;7.678;2022-10-18T16:35:34;2.23;;;0.30;;
37777;SDS011;23615;51.506;7.678;2022-10-18T16:38:00;1.50;;;0.47;;
37777;SDS011;23615;51.506;7.678;2022-10-18T16:40:25;2.45;;;0.47;;
37777;SDS011;23615;51.506;7.678;2022-10-18T16:42:51;1.10;;;0.30;;
37777;SDS011;23615;51.506;7.678;2022-10-18T16:45:17;1.50;;;0.20;;
37777;SDS011;23615;51.506;7.678;2022-10-18T16:47:42;1.83;;;0.30;;
37777;SDS011;23615;51.506;7.678;2022-10-18T16:50:15;2.20;;;0.30;;
37777;SDS011;23615;51.506;7.678;2022-10-18T16:52:42;2.53;;;0.20;;
37777;SDS011;23615;51.506;7.678;2022-10-18T16:55:08;0.98;;;0.20;;
37777;SDS011;23615;51.506;7.678;2022-10-18T16:57:41;1.27;;;0.30;;
37777;SDS011;23615;51.506;7.678;2022-10-18T17:00:11;0.45;;;0.13;;
37777;SDS011;23615;51.506;7.678;2022-10-18T17:02:40;1.17;;;0.40;;
37777;SDS011;23615;51.506;7.678;2022-10-18T17:05:06;1.70;;;0.30;;
37777;SDS011;23615;51.506;7.678;2022-10-18T17:07:31;1.83;;;0.27;;
37777;SDS011;23615;51.506;7.678;2022-10-18T17:09:56;1.10;;;0.20;;
37777;SDS011;23615;51.506;7.678;2022-10-18T17:12:22;4.53;;;0.40;;
37777;SDS011;23615;51.506;7.678;2022-10-18T17:14:47;0.83;;;0.40;;
37777;SDS011;23615;51.506;7.678;2022-10-18T17:17:12;1.30;;;0.20;;
37777;SDS011;23615;51.506;7.678;2022-10-18T17:19:37;2.67;;;0.30;;
37777;SDS011;23615;51.506;7.678;2022-10-18T17:22:03;0.80;;;0.30;;
37777;SDS011;23615;51.506;7.678;2022-10-18T17:24:28;0.93;;;0.30;;